Time;durP1;ratioP1;P1;durP2;ratioP2;P2;SDS_P1;SDS_P2;PMS_P1;PMS_P2;Temp;Humidity;BMP_temperature;BMP_pressure;BME280_temperature;BME280_humidity;BME280_pressure;Samples;Min_cycle;Max_cycle;Signal;HPM_P1;HPM_P2
2023/09/11 00:01:34;;;;;;;;;;;;;;;;;;4991613;28;20417;-94
2023/09/11 00:04:00;;;;;;;;;;;;;;;;;;4967035;28;19953;-94
2023/09/11 00:06:26;;;;;;;;;;;;;;;;;;4990872;28;19946;-92
2023/09/11 00:08:52;;;;;;;;;;;;;;;;;;4986166;28;19917;-94
2023/09/11 00:11:25;;;;;;;;;;;;;;;;;;4993569;28;19918;-94
2023/09/11 00:13:50;;;;;;;;;;;;;;;;;;5007514;28;19922;-94
2023/09/11 00:16:16;;;;;;;;;;;;;;;;;;4982212;28;19930;-94
2023/09/11 00:18:43;;;;;;;;;;;;;;;;;;4988446;28;19914;-94
2023/09/11 00:21:08;;;;;;;;;;;;;;;;;;4980408;28;19974;-94
2023/09/11 00:23:34;;;;;;;;;;;;;;;;;;4980048;28;19921;-94
2023/09/11 00:26:01;;;;;;;;;;;;;;;;;;4989621;28;20541;-94
2023/09/11 00:28:27;;;;;;;;;;;;;;;;;;4991099;28;20041;-93
2023/09/11 00:30:53;;;;;;;;;;;;;;;;;;4998629;28;19955;-92
2023/09/11 00:33:19;;;;;;;;;;;;;;;;;;5001881;28;19924;-93
2023/09/11 00:35:45;;;;;;;;;;;;;;;;;;4999898;28;20259;-93
2023/09/11 00:38:11;;;;;;;;;;;;;;;;;;5001398;28;19918;-93
2023/09/11 00:40:37;;;;;;;;;;;;;;;;;;4998747;28;19960;-94
2023/09/11 00:43:03;;;;;;;;;;;;;;;;;;4997575;28;20007;-92
2023/09/11 00:45:28;;;;;;;;;;;;;;;;;;4994988;28;19920;-93
2023/09/11 00:47:54;;;;;;;;;;;;;;;;;;5000216;28;19913;-92
2023/09/11 00:50:20;;;;;;;;;;;;;;;;;;5000109;28;19917;-93
2023/09/11 00:52:47;;;;;;;;;;;;;;;;;;4996834;28;19920;-93
2023/09/11 00:55:13;;;;;;;;;;;;;;;;;;5002998;28;19913;-92
2023/09/11 00:57:39;;;;;;;;;;;;;;;;;;4999058;28;19940;-93
2023/09/11 01:00:06;;;;;;;;;;;;;;;;;;4995110;28;20004;-92
2023/09/11 01:02:32;;;;;;;;;;;;;;;;;;4998557;28;19925;-93
2023/09/11 01:04:58;;;;;;;;;;;;;;;;;;4994132;28;20019;-92
2023/09/11 01:07:24;;;;;;;;;;;;;;;;;;4994103;28;20133;-92
2023/09/11 01:09:49;;;;;;;;;;;;;;;;;;4998350;28;19917;-93
2023/09/11 01:12:15;;;;;;;;;;;;;;;;;;4998092;28;19939;-93
2023/09/11 01:14:41;;;;;;;;;;;;;;;;;;5002806;28;19917;-92
2023/09/11 01:17:07;;;;;;;;;;;;;;;;;;5007611;28;19921;-92
2023/09/11 01:19:33;;;;;;;;;;;;;;;;;;5000404;28;19917;-93
2023/09/11 01:21:59;;;;;;;;;;;;;;;;;;5002936;28;19925;-93
2023/09/11 01:24:25;;;;;;;;;;;;;;;;;;4999765;28;19916;-92
2023/09/11 01:26:51;;;;;;;;;;;;;;;;;;4999998;28;20041;-94
2023/09/11 01:29:17;;;;;;;;;;;;;;;;;;5008536;28;20262;-94
2023/09/11 01:31:44;;;;;;;;;;;;;;;;;;5002395;28;19913;-94
2023/09/11 01:34:10;;;;;;;;;;;;;;;;;;4997827;28;19928;-94
2023/09/11 01:36:36;;;;;;;;;;;;;;;;;;4995887;28;19918;-92
2023/09/11 01:39:02;;;;;;;;;;;;;;;;;;4998062;28;19917;-92
2023/09/11 01:41:28;;;;;;;;;;;;;;;;;;4990341;28;19921;-92
2023/09/11 01:43:54;;;;;;;;;;;;;;;;;;4990196;28;19918;-93
2023/09/11 01:46:20;;;;;;;;;;;;;;;;;;4994379;28;19924;-93
2023/09/11 01:48:46;;;;;;;;;;;;;;;;;;4995024;28;19926;-92
2023/09/11 01:51:12;;;;;;;;;;;;;;;;;;4988993;28;19941;-92
2023/09/11 01:53:38;;;;;;;;;;;;;;;;;;4994794;28;20682;-92
2023/09/11 01:56:04;;;;;;;;;;;;;;;;;;4992892;28;19918;-93
2023/09/11 01:58:29;;;;;;;;;;;;;;;;;;4992654;28;19925;-92
2023/09/11 02:00:55;;;;;;;;;;;;;;;;;;4989886;28;19921;-92
2023/09/11 02:03:21;;;;;;;;;;;;;;;;;;4995302;28;19922;-93
2023/09/11 02:05:47;;;;;;;;;;;;;;;;;;4995619;28;20358;-92
2023/09/11 02:08:13;;;;;;;;;;;;;;;;;;4991125;28;20360;-92
2023/09/11 02:10:39;;;;;;;;;;;;;;;;;;4993101;28;20385;-92
2023/09/11 02:13:05;;;;;;;;;;;;;;;;;;4986843;28;19914;-93
2023/09/11 02:15:31;;;;;;;;;;;;;;;;;;4999221;28;19917;-92
2023/09/11 02:17:57;;;;;;;;;;;;;;;;;;4991634;28;19918;-92
2023/09/11 02:20:23;;;;;;;;;;;;;;;;;;4993752;28;19937;-92
2023/09/11 02:22:49;;;;;;;;;;;;;;;;;;4989246;28;20093;-92
2023/09/11 02:25:15;;;;;;;;;;;;;;;;;;4993601;28;19996;-92
2023/09/11 02:27:41;;;;;;;;;;;;;;;;;;4997853;28;20020;-93
2023/09/11 02:30:07;;;;;;;;;;;;;;;;;;4985949;28;20060;-94
2023/09/11 02:32:32;;;;;;;;;;;;;;;;;;4975275;28;20005;-93
2023/09/11 02:34:58;;;;;;;;;;;;;;;;;;5001385;28;20008;-92
2023/09/11 02:37:24;;;;;;;;;;;;;;;;;;4994724;28;19914;-92
2023/09/11 02:39:50;;;;;;;;;;;;;;;;;;4990310;28;19933;-92
2023/09/11 02:42:16;;;;;;;;;;;;;;;;;;4995749;28;20310;-92
2023/09/11 02:44:43;;;;;;;;;;;;;;;;;;4993359;28;20001;-93
2023/09/11 02:47:09;;;;;;;;;;;;;;;;;;4989992;28;20349;-92
2023/09/11 02:49:35;;;;;;;;;;;;;;;;;;4993335;28;19970;-92
2023/09/11 02:52:01;;;;;;;;;;;;;;;;;;4988273;28;19922;-92
2023/09/11 02:54:27;;;;;;;;;;;;;;;;;;4996622;28;19979;-93
2023/09/11 02:56:52;;;;;;;;;;;;;;;;;;4988690;28;19973;-93
2023/09/11 02:59:18;;;;;;;;;;;;;;;;;;4988018;28;19933;-93
2023/09/11 03:01:44;;;;;;;;;;;;;;;;;;4990141;28;20079;-93
2023/09/11 03:04:10;;;;;;;;;;;;;;;;;;4995580;28;19911;-93
2023/09/11 03:06:36;;;;;;;;;;;;;;;;;;4985388;28;19914;-93
2023/09/11 03:09:05;;;;;;;;;;;;;;;;;;4995239;28;19940;-93
2023/09/11 03:11:31;;;;;;;;;;;;;;;;;;4992499;28;20527;-93
2023/09/11 03:13:57;;;;;;;;;;;;;;;;;;4993146;28;19928;-93
2023/09/11 03:16:23;;;;;;;;;;;;;;;;;;4989022;28;19918;-94
2023/09/11 03:18:49;;;;;;;;;;;;;;;;;;4990656;28;19914;-93
2023/09/11 03:21:15;;;;;;;;;;;;;;;;;;4992991;28;20013;-93
2023/09/11 03:23:41;;;;;;;;;;;;;;;;;;4992232;28;19914;-94
2023/09/11 03:26:07;;;;;;;;;;;;;;;;;;4989106;28;20008;-91
2023/09/11 03:28:33;;;;;;;;;;;;;;;;;;4995030;28;19913;-93
2023/09/11 03:30:59;;;;;;;;;;;;;;;;;;4985961;28;19920;-92
2023/09/11 03:33:24;;;;;;;;;;;;;;;;;;4985596;28;19916;-92
2023/09/11 03:35:51;;;;;;;;;;;;;;;;;;4992060;28;19929;-92
2023/09/11 03:38:16;;;;;;;;;;;;;;;;;;4996898;28;19953;-93
2023/09/11 03:40:42;;;;;;;;;;;;;;;;;;5000191;28;19967;-92
2023/09/11 03:43:08;;;;;;;;;;;;;;;;;;5001169;28;19921;-92
2023/09/11 03:45:34;;;;;;;;;;;;;;;;;;5002699;28;20411;-92
2023/09/11 03:48:00;;;;;;;;;;;;;;;;;;4997254;28;19921;-93
2023/09/11 03:50:26;;;;;;;;;;;;;;;;;;4999906;28;19917;-92
2023/09/11 03:52:52;;;;;;;;;;;;;;;;;;4996265;28;20427;-92
2023/09/11 03:55:18;;;;;;;;;;;;;;;;;;4994254;28;19921;-92
2023/09/11 03:57:44;;;;;;;;;;;;;;;;;;4992109;28;20376;-92
2023/09/11 04:00:10;;;;;;;;;;;;;;;;;;4991996;28;20048;-92
2023/09/11 04:02:36;;;;;;;;;;;;;;;;;;4993493;28;19922;-92
2023/09/11 04:05:02;;;;;;;;;;;;;;;;;;4994592;28;19918;-93
2023/09/11 04:07:28;;;;;;;;;;;;;;;;;;4994153;28;19948;-93
2023/09/11 04:09:54;;;;;;;;;;;;;;;;;;4996346;28;19921;-92
2023/09/11 04:12:19;;;;;;;;;;;;;;;;;;4991259;28;19928;-94
2023/09/11 04:14:45;;;;;;;;;;;;;;;;;;4994627;28;19965;-94
2023/09/11 04:17:11;;;;;;;;;;;;;;;;;;4995451;28;20019;-94
2023/09/11 04:19:38;;;;;;;;;;;;;;;;;;4996421;28;19918;-93
2023/09/11 04:22:04;;;;;;;;;;;;;;;;;;5003764;28;19918;-93
2023/09/11 04:24:30;;;;;;;;;;;;;;;;;;4993311;28;20428;-94
2023/09/11 04:26:56;;;;;;;;;;;;;;;;;;4999551;28;19959;-93
2023/09/11 04:29:22;;;;;;;;;;;;;;;;;;4998404;28;19921;-93
2023/09/11 04:31:48;;;;;;;;;;;;;;;;;;4991239;28;19921;-93
2023/09/11 04:34:14;;;;;;;;;;;;;;;;;;5005422;28;20370;-93
2023/09/11 04:36:40;;;;;;;;;;;;;;;;;;4991033;28;19922;-93
2023/09/11 04:39:06;;;;;;;;;;;;;;;;;;4988344;28;19914;-94
2023/09/11 04:41:32;;;;;;;;;;;;;;;;;;4991978;28;20417;-93
2023/09/11 04:43:58;;;;;;;;;;;;;;;;;;4985217;28;19922;-93
2023/09/11 04:46:24;;;;;;;;;;;;;;;;;;4991638;28;20446;-94
2023/09/11 04:48:50;;;;;;;;;;;;;;;;;;4994371;28;19921;-93
2023/09/11 04:51:16;;;;;;;;;;;;;;;;;;4991445;28;19940;-94
2023/09/11 04:53:42;;;;;;;;;;;;;;;;;;4968159;28;19984;-94
2023/09/11 04:56:09;;;;;;;;;;;;;;;;;;4998203;28;19976;-93
2023/09/11 04:58:35;;;;;;;;;;;;;;;;;;4990498;28;19924;-92
2023/09/11 05:01:01;;;;;;;;;;;;;;;;;;4987681;28;20457;-92
2023/09/11 05:03:26;;;;;;;;;;;;;;;;;;4996701;28;19921;-93
2023/09/11 05:05:52;;;;;;;;;;;;;;;;;;4992995;28;20042;-92
2023/09/11 05:08:18;;;;;;;;;;;;;;;;;;4994328;28;19924;-94
2023/09/11 05:10:44;;;;;;;;;;;;;;;;;;4995528;28;19945;-93
2023/09/11 05:13:10;;;;;;;;;;;;;;;;;;4995211;28;19921;-93
2023/09/11 05:15:36;;;;;;;;;;;;;;;;;;4991663;28;19930;-93
2023/09/11 05:18:02;;;;;;;;;;;;;;;;;;4994725;28;19926;-94
2023/09/11 05:20:28;;;;;;;;;;;;;;;;;;4994122;28;20444;-93
2023/09/11 05:22:54;;;;;;;;;;;;;;;;;;4993072;28;19914;-93
2023/09/11 05:25:20;;;;;;;;;;;;;;;;;;4996443;28;19921;-94
2023/09/11 05:27:46;;;;;;;;;;;;;;;;;;4987959;28;20001;-94
2023/09/11 05:30:12;;;;;;;;;;;;;;;;;;4990307;28;20373;-94
2023/09/11 05:32:38;;;;;;;;;;;;;;;;;;4994876;28;19925;-93
2023/09/11 05:35:04;;;;;;;;;;;;;;;;;;4995272;28;19913;-94
2023/09/11 05:37:30;;;;;;;;;;;;;;;;;;4992948;28;19921;-93
2023/09/11 05:39:56;;;;;;;;;;;;;;;;;;4996531;28;20317;-93
2023/09/11 05:42:22;;;;;;;;;;;;;;;;;;4992329;28;19929;-93
2023/09/11 05:44:48;;;;;;;;;;;;;;;;;;4997827;28;19928;-93
2023/09/11 05:47:14;;;;;;;;;;;;;;;;;;4993513;28;19923;-93
2023/09/11 05:49:40;;;;;;;;;;;;;;;;;;4992215;28;20012;-93
2023/09/11 05:52:06;;;;;;;;;;;;;;;;;;4995971;28;19918;-93
2023/09/11 05:54:33;;;;;;;;;;;;;;;;;;4995758;28;20008;-95
2023/09/11 05:56:59;;;;;;;;;;;;;;;;;;4992047;28;20416;-93
2023/09/11 05:59:25;;;;;;;;;;;;;;;;;;4990692;28;19968;-93
2023/09/11 06:01:51;;;;;;;;;;;;;;;;;;4986573;28;20378;-94
2023/09/11 06:04:17;;;;;;;;;;;;;;;;;;4993469;28;19942;-93
2023/09/11 06:06:51;;;;;;;;;;;;;;;;;;4993125;28;19918;-93
2023/09/11 06:09:17;;;;;;;;;;;;;;;;;;5002690;28;19926;-94
2023/09/11 06:11:43;;;;;;;;;;;;;;;;;;4991492;28;20415;-93
2023/09/11 06:14:09;;;;;;;;;;;;;;;;;;4992870;28;19961;-93
2023/09/11 06:16:35;;;;;;;;;;;;;;;;;;4991331;28;20377;-94
2023/09/11 06:19:01;;;;;;;;;;;;;;;;;;4988559;28;19985;-93
2023/09/11 06:21:27;;;;;;;;;;;;;;;;;;4991366;28;21564;-93
2023/09/11 06:23:53;;;;;;;;;;;;;;;;;;4990909;28;19929;-94
2023/09/11 06:26:18;;;;;;;;;;;;;;;;;;4993825;28;19906;-94
2023/09/11 06:28:44;;;;;;;;;;;;;;;;;;4998170;28;19928;-94
2023/09/11 06:53:05;;;;;;;;;;;;;;;;;;5933111;22;8260668;-90
2023/09/11 06:55:31;;;;;;;;;;;;;;;;;;6265091;22;19907;-90
2023/09/11 06:57:57;;;;;;;;;;;;;;;;;;6224760;23;20356;-90
2023/09/11 07:00:23;;;;;;;;;;;;;;;;;;6212570;23;19960;-92
2023/09/11 07:02:49;;;;;;;;;;;;;;;;;;6222314;23;19908;-91
2023/09/11 07:05:16;;;;;;;;;;;;;;;;;;6224717;23;19911;-91
2023/09/11 07:07:41;;;;;;;;;;;;;;;;;;6222673;23;19914;-87
2023/09/11 07:10:07;;;;;;;;;;;;;;;;;;6221143;23;19903;-87
2023/09/11 07:12:33;;;;;;;;;;;;;;;;;;6222565;23;20256;-87
2023/09/11 07:15:00;;;;;;;;;;;;;;;;;;6220399;23;19927;-87
2023/09/11 07:17:35;;;;;;;;;;;;;;;;;;6221439;23;19903;-87
2023/09/11 07:20:01;;;;;;;;;;;;;;;;;;6221226;23;20254;-88
2023/09/11 07:22:27;;;;;;;;;;;;;;;;;;6221623;23;19904;-86
2023/09/11 07:24:53;;;;;;;;;;;;;;;;;;6221662;23;20208;-87
2023/09/11 07:27:19;;;;;;;;;;;;;;;;;;6221896;23;19931;-87
2023/09/11 07:29:45;;;;;;;;;;;;;;;;;;6249238;23;20018;-87
2023/09/11 07:32:11;;;;;;;;;;;;;;;;;;6222346;23;20332;-87
2023/09/11 07:34:37;;;;;;;;;;;;;;;;;;6222324;23;19913;-87
2023/09/11 07:37:03;;;;;;;;;;;;;;;;;;6222081;23;19911;-87
2023/09/11 07:39:29;;;;;;;;;;;;;;;;;;6222957;23;19970;-87
2023/09/11 07:41:55;;;;;;;;;;;;;;;;;;6222425;23;19938;-87
2023/09/11 07:44:21;;;;;;;;;;;;;;;;;;6249532;23;19943;-87
2023/09/11 07:46:48;;;;;;;;;;;;;;;;;;6222256;23;19986;-87
2023/09/11 07:49:14;;;;;;;;;;;;;;;;;;6249294;23;19916;-87
2023/09/11 07:51:40;;;;;;;;;;;;;;;;;;6249000;22;20221;-88
2023/09/11 07:54:06;;;;;;;;;;;;;;;;;;6216358;23;19955;-87
2023/09/11 07:56:33;;;;;;;;;;;;;;;;;;6214598;23;19904;-88
2023/09/11 07:59:00;;;;;;;;;;;;;;;;;;6242410;23;19903;-87
2023/09/11 08:01:26;;;;;;;;;;;;;;;;;;6214393;23;19912;-87
2023/09/11 08:04:02;;;;;;;;;;;;;;;;;;6217112;23;19910;-88
2023/09/11 08:06:27;;;;;;;;;;;;;;;;;;6215963;23;19907;-87
2023/09/11 08:08:55;;;;;;;;;;;;;;;;;;6217442;23;19911;-87
2023/09/11 08:11:21;;;;;;;;;;;;;;;;;;6217532;23;19904;-88
2023/09/11 08:13:51;;;;;;;;;;;;;;;;;;6217130;23;19966;-86
2023/09/11 08:16:16;;;;;;;;;;;;;;;;;;6216363;23;20340;-87
2023/09/11 08:18:42;;;;;;;;;;;;;;;;;;6225901;23;19904;-90
2023/09/11 08:21:08;;;;;;;;;;;;;;;;;;6225509;23;19951;-91
2023/09/11 08:23:37;;;;;;;;;;;;;;;;;;6226088;23;20322;-91
2023/09/11 08:26:03;;;;;;;;;;;;;;;;;;6252727;23;19911;-91
2023/09/11 08:28:29;;;;;;;;;;;;;;;;;;6219103;23;19903;-87
2023/09/11 08:30:55;;;;;;;;;;;;;;;;;;6216353;23;19937;-87
2023/09/11 08:33:21;;;;;;;;;;;;;;;;;;6217587;23;19908;-87
2023/09/11 08:35:48;;;;;;;;;;;;;;;;;;6217500;23;19914;-87
2023/09/11 08:38:14;;;;;;;;;;;;;;;;;;6218300;23;19912;-87
2023/09/11 08:40:40;;;;;;;;;;;;;;;;;;6218782;23;20418;-86
2023/09/11 08:43:06;;;;;;;;;;;;;;;;;;6217777;23;19908;-88
2023/09/11 08:45:32;;;;;;;;;;;;;;;;;;6217567;23;19946;-87
2023/09/11 08:47:58;;;;;;;;;;;;;;;;;;6217981;23;20002;-89
2023/09/11 08:50:24;;;;;;;;;;;;;;;;;;6218058;23;19910;-87
2023/09/11 08:52:50;;;;;;;;;;;;;;;;;;6219969;22;19919;-88
2023/09/11 08:55:21;;;;;;;;;;;;;;;;;;6245500;22;20576;-87
2023/09/11 08:57:47;;;;;;;;;;;;;;;;;;6217724;23;20237;-87
2023/09/11 09:00:13;;;;;;;;;;;;;;;;;;6216781;23;19908;-86
2023/09/11 09:02:39;;;;;;;;;;;;;;;;;;6216307;23;19957;-87
2023/09/11 09:05:05;;;;;;;;;;;;;;;;;;6217165;23;19986;-87
2023/09/11 09:07:31;;;;;;;;;;;;;;;;;;6243587;23;19919;-87
2023/09/11 09:10:04;;;;;;;;;;;;;;;;;;6244357;23;19907;-87
2023/09/11 09:12:32;;;;;;;;;;;;;;;;;;6217795;23;19939;-88
2023/09/11 09:14:58;;;;;;;;;;;;;;;;;;6214362;23;19907;-87
2023/09/11 09:17:24;;;;;;;;;;;;;;;;;;6216216;23;19947;-88
2023/09/11 09:19:50;;;;;;;;;;;;;;;;;;6218073;23;19904;-88
2023/09/11 09:22:16;;;;;;;;;;;;;;;;;;6217336;23;19990;-88
2023/09/11 09:24:42;;;;;;;;;;;;;;;;;;6216406;23;19903;-87
2023/09/11 09:27:11;;;;;;;;;;;;;;;;;;6217946;23;20225;-91
2023/09/11 09:29:37;;;;;;;;;;;;;;;;;;6248701;23;19923;-90
2023/09/11 09:32:03;;;;;;;;;;;;;;;;;;6220225;23;19908;-93
2023/09/11 09:34:29;;;;;;;;;;;;;;;;;;6249983;23;19908;-93
2023/09/11 09:36:55;;;;;;;;;;;;;;;;;;6248932;23;19982;-89
2023/09/11 09:39:21;;;;;;;;;;;;;;;;;;6217129;23;19904;-87
2023/09/11 09:41:47;;;;;;;;;;;;;;;;;;6246625;23;19920;-88
2023/09/11 09:44:13;;;;;;;;;;;;;;;;;;6218283;23;19903;-88
2023/09/11 09:46:42;;;;;;;;;;;;;;;;;;6215569;23;20389;-88
2023/09/11 09:49:08;;;;;;;;;;;;;;;;;;6220361;23;19930;-88
2023/09/11 09:51:34;;;;;;;;;;;;;;;;;;6215260;22;19916;-89
2023/09/11 09:54:00;;;;;;;;;;;;;;;;;;6190445;23;19904;-88
2023/09/11 09:56:26;;;;;;;;;;;;;;;;;;6191927;23;19904;-87
2023/09/11 09:58:52;;;;;;;;;;;;;;;;;;6188707;23;20429;-88
2023/09/11 10:01:20;;;;;;;;;;;;;;;;;;6214589;23;19955;-87
2023/09/11 10:03:46;;;;;;;;;;;;;;;;;;6185630;23;19904;-87
2023/09/11 10:06:12;;;;;;;;;;;;;;;;;;6188124;23;19914;-87
2023/09/11 10:08:38;;;;;;;;;;;;;;;;;;6184088;23;19911;-87
2023/09/11 10:11:04;;;;;;;;;;;;;;;;;;6213585;23;19904;-87
2023/09/11 10:13:32;;;;;;;;;;;;;;;;;;6212146;23;19915;-88
2023/09/11 10:15:58;;;;;;;;;;;;;;;;;;6187945;23;20242;-88
2023/09/11 10:18:24;;;;;;;;;;;;;;;;;;6216566;23;19935;-88
2023/09/11 10:20:50;;;;;;;;;;;;;;;;;;6188662;23;19963;-86
2023/09/11 10:23:16;;;;;;;;;;;;;;;;;;6187935;23;19908;-88
2023/09/11 10:25:42;;;;;;;;;;;;;;;;;;6190538;23;19911;-88
2023/09/11 10:28:21;;;;;;;;;;;;;;;;;;6187423;23;20062;-88
2023/09/11 10:30:47;;;;;;;;;;;;;;;;;;6187350;23;20448;-88
2023/09/11 10:33:15;;;;;;;;;;;;;;;;;;6185089;23;19903;-87
2023/09/11 10:35:41;;;;;;;;;;;;;;;;;;6186406;23;20035;-87
2023/09/11 10:38:07;;;;;;;;;;;;;;;;;;6189083;23;19904;-93
2023/09/11 10:40:33;;;;;;;;;;;;;;;;;;6191372;23;19915;-93
2023/09/11 10:43:01;;;;;;;;;;;;;;;;;;6191009;23;19907;-93
2023/09/11 10:45:27;;;;;;;;;;;;;;;;;;6185997;23;19911;-93
2023/09/11 10:47:53;;;;;;;;;;;;;;;;;;6191613;23;19907;-89
2023/09/11 10:50:19;;;;;;;;;;;;;;;;;;6185191;23;19994;-88
2023/09/11 10:52:46;;;;;;;;;;;;;;;;;;6209165;22;19965;-88
2023/09/11 10:55:12;;;;;;;;;;;;;;;;;;6215299;23;19995;-87
2023/09/11 10:57:38;;;;;;;;;;;;;;;;;;6216375;23;19939;-88
2023/09/11 11:00:05;;;;;;;;;;;;;;;;;;6214490;23;19911;-88
2023/09/11 11:02:31;;;;;;;;;;;;;;;;;;6216274;23;19915;-87
2023/09/11 11:04:57;;;;;;;;;;;;;;;;;;6216146;23;19955;-88
2023/09/11 11:07:23;;;;;;;;;;;;;;;;;;6218025;23;19908;-88
2023/09/11 11:09:49;;;;;;;;;;;;;;;;;;6218757;23;20435;-88
2023/09/11 11:12:18;;;;;;;;;;;;;;;;;;6215276;23;19911;-88
2023/09/11 11:14:44;;;;;;;;;;;;;;;;;;6221074;23;19911;-88
2023/09/11 11:17:10;;;;;;;;;;;;;;;;;;6217008;23;19904;-88
2023/09/11 11:19:36;;;;;;;;;;;;;;;;;;6219818;23;19903;-87
2023/09/11 11:22:03;;;;;;;;;;;;;;;;;;6217635;23;19919;-88
2023/09/11 11:24:29;;;;;;;;;;;;;;;;;;6218517;23;20359;-86
2023/09/11 11:26:58;;;;;;;;;;;;;;;;;;6218121;23;19931;-87
2023/09/11 11:29:24;;;;;;;;;;;;;;;;;;6223070;23;19930;-88
2023/09/11 11:31:50;;;;;;;;;;;;;;;;;;6222800;23;19904;-88
2023/09/11 11:34:22;;;;;;;;;;;;;;;;;;6222302;23;19914;-88
2023/09/11 11:36:48;;;;;;;;;;;;;;;;;;6223472;23;19904;-89
2023/09/11 11:39:14;;;;;;;;;;;;;;;;;;6222411;23;20051;-88
2023/09/11 11:41:40;;;;;;;;;;;;;;;;;;6218489;23;20353;-86
2023/09/11 11:44:06;;;;;;;;;;;;;;;;;;6220844;23;19982;-88
2023/09/11 11:46:32;;;;;;;;;;;;;;;;;;6221260;23;19904;-87
2023/09/11 11:48:58;;;;;;;;;;;;;;;;;;6223589;23;20310;-88
2023/09/11 11:51:34;;;;;;;;;;;;;;;;;;6221071;22;19904;-88
2023/09/11 11:54:00;;;;;;;;;;;;;;;;;;6222235;23;19923;-89
2023/09/11 11:56:26;;;;;;;;;;;;;;;;;;6219475;23;19953;-90
2023/09/11 11:58:52;;;;;;;;;;;;;;;;;;6222358;23;19930;-91
2023/09/11 12:01:18;;;;;;;;;;;;;;;;;;6221600;23;20314;-93
2023/09/11 12:03:47;;;;;;;;;;;;;;;;;;6223819;23;19926;-93
2023/09/11 12:06:13;;;;;;;;;;;;;;;;;;6221919;23;19935;-93
2023/09/11 12:08:39;;;;;;;;;;;;;;;;;;6222740;23;19903;-94
2023/09/11 12:11:05;;;;;;;;;;;;;;;;;;6224098;23;19907;-92
2023/09/11 12:13:31;;;;;;;;;;;;;;;;;;6221036;23;19903;-91
2023/09/11 12:15:56;;;;;;;;;;;;;;;;;;6220689;23;19903;-91
2023/09/11 12:18:22;;;;;;;;;;;;;;;;;;6219847;23;19911;-92
2023/09/11 12:20:49;;;;;;;;;;;;;;;;;;6221256;23;19915;-93
2023/09/11 12:23:15;;;;;;;;;;;;;;;;;;6220416;23;20347;-93
2023/09/11 12:25:41;;;;;;;;;;;;;;;;;;6216815;23;19903;-93
2023/09/11 12:28:07;;;;;;;;;;;;;;;;;;6216937;23;19908;-93
2023/09/11 12:30:40;;;;;;;;;;;;;;;;;;6216877;23;20365;-92
2023/09/11 12:33:06;;;;;;;;;;;;;;;;;;6216888;23;19919;-93
2023/09/11 12:35:31;;;;;;;;;;;;;;;;;;6217177;23;19908;-92
2023/09/11 12:37:57;;;;;;;;;;;;;;;;;;6218403;23;19946;-93
2023/09/11 12:40:23;;;;;;;;;;;;;;;;;;6218403;23;19975;-91
2023/09/11 12:42:49;;;;;;;;;;;;;;;;;;6218775;23;19946;-92
2023/09/11 12:45:15;;;;;;;;;;;;;;;;;;6216263;23;19903;-93
2023/09/11 12:47:41;;;;;;;;;;;;;;;;;;6217268;23;19907;-93
2023/09/11 12:50:07;;;;;;;;;;;;;;;;;;6219012;23;20340;-93
2023/09/11 12:52:33;;;;;;;;;;;;;;;;;;6218821;22;19919;-92
2023/09/11 12:54:59;;;;;;;;;;;;;;;;;;6218589;23;19946;-93
2023/09/11 12:57:25;;;;;;;;;;;;;;;;;;6216440;23;20404;-94
2023/09/11 12:59:51;;;;;;;;;;;;;;;;;;6218342;23;20395;-92
2023/09/11 13:02:17;;;;;;;;;;;;;;;;;;6217931;23;19974;-92
2023/09/11 13:04:43;;;;;;;;;;;;;;;;;;6220002;23;19911;-92
2023/09/11 13:07:09;;;;;;;;;;;;;;;;;;6217174;23;20331;-89
2023/09/11 13:09:36;;;;;;;;;;;;;;;;;;6214886;23;19960;-89
2023/09/11 13:12:03;;;;;;;;;;;;;;;;;;6241701;23;19915;-88
2023/09/11 13:14:29;;;;;;;;;;;;;;;;;;6213484;23;19908;-88
2023/09/11 13:16:55;;;;;;;;;;;;;;;;;;6214444;23;20592;-89
2023/09/11 13:19:21;;;;;;;;;;;;;;;;;;6214405;23;19904;-87
2023/09/11 13:21:47;;;;;;;;;;;;;;;;;;6213676;23;19946;-87
2023/09/11 13:24:13;;;;;;;;;;;;;;;;;;6214304;23;19908;-87
2023/09/11 13:26:39;;;;;;;;;;;;;;;;;;6214712;23;19934;-87
2023/09/11 13:29:07;;;;;;;;;;;;;;;;;;6214165;23;19936;-88
2023/09/11 13:31:33;;;;;;;;;;;;;;;;;;6241250;23;19904;-88
2023/09/11 13:33:59;;;;;;;;;;;;;;;;;;6241669;23;19910;-87
2023/09/11 13:36:25;;;;;;;;;;;;;;;;;;6216087;23;20378;-88
2023/09/11 13:38:51;;;;;;;;;;;;;;;;;;6215051;23;19915;-87
2023/09/11 13:41:17;;;;;;;;;;;;;;;;;;6242085;23;19912;-86
2023/09/11 13:43:43;;;;;;;;;;;;;;;;;;6215149;23;19908;-87
2023/09/11 13:46:09;;;;;;;;;;;;;;;;;;6215161;23;20325;-87
2023/09/11 13:48:35;;;;;;;;;;;;;;;;;;6213628;23;19912;-88
2023/09/11 13:51:01;;;;;;;;;;;;;;;;;;6213871;23;19911;-88
2023/09/11 13:53:27;;;;;;;;;;;;;;;;;;6216343;22;20449;-87
2023/09/11 13:55:53;;;;;;;;;;;;;;;;;;6213854;23;19903;-88
2023/09/11 13:58:19;;;;;;;;;;;;;;;;;;6214059;23;19908;-87
2023/09/11 14:00:45;;;;;;;;;;;;;;;;;;6213230;23;19911;-88
2023/09/11 14:03:11;;;;;;;;;;;;;;;;;;6214086;23;19999;-88
2023/09/11 14:05:37;;;;;;;;;;;;;;;;;;6213891;23;19928;-88
2023/09/11 14:08:03;;;;;;;;;;;;;;;;;;6214590;23;19938;-88
2023/09/11 14:10:29;;;;;;;;;;;;;;;;;;6212559;23;19914;-88
2023/09/11 14:12:58;;;;;;;;;;;;;;;;;;6211997;23;19982;-88
2023/09/11 14:15:24;;;;;;;;;;;;;;;;;;6214390;23;19904;-88
2023/09/11 14:17:50;;;;;;;;;;;;;;;;;;6213162;23;19914;-89
2023/09/11 14:20:16;;;;;;;;;;;;;;;;;;6214927;23;19914;-89
2023/09/11 14:22:42;;;;;;;;;;;;;;;;;;6213235;23;19915;-90
2023/09/11 14:25:08;;;;;;;;;;;;;;;;;;6215147;23;19908;-89
2023/09/11 14:27:34;;;;;;;;;;;;;;;;;;6210479;23;19914;-88
2023/09/11 14:30:00;;;;;;;;;;;;;;;;;;6212006;23;20505;-88
2023/09/11 14:32:26;;;;;;;;;;;;;;;;;;6211270;23;19937;-89
2023/09/11 14:34:52;;;;;;;;;;;;;;;;;;6212773;23;20253;-89
2023/09/11 14:37:18;;;;;;;;;;;;;;;;;;6212856;23;19914;-88
2023/09/11 14:39:43;;;;;;;;;;;;;;;;;;6212715;23;19957;-88
2023/09/11 14:42:09;;;;;;;;;;;;;;;;;;6212447;23;20003;-89
2023/09/11 14:44:35;;;;;;;;;;;;;;;;;;6211395;23;19908;-88
2023/09/11 14:47:01;;;;;;;;;;;;;;;;;;6211247;23;20483;-88
2023/09/11 14:49:27;;;;;;;;;;;;;;;;;;6239488;23;19911;-88
2023/09/11 14:51:53;;;;;;;;;;;;;;;;;;6212048;23;19931;-88
2023/09/11 14:54:19;;;;;;;;;;;;;;;;;;6212740;22;19919;-88
2023/09/11 14:56:45;;;;;;;;;;;;;;;;;;6212937;23;19908;-89
2023/09/11 14:59:11;;;;;;;;;;;;;;;;;;6212183;23;19927;-89
2023/09/11 15:01:37;;;;;;;;;;;;;;;;;;6211649;23;19946;-89
2023/09/11 15:04:03;;;;;;;;;;;;;;;;;;6208036;23;20243;-89
2023/09/11 15:06:29;;;;;;;;;;;;;;;;;;6207717;23;19907;-89
2023/09/11 15:08:58;;;;;;;;;;;;;;;;;;6208126;23;20018;-88
2023/09/11 15:11:24;;;;;;;;;;;;;;;;;;6206180;23;19913;-88
2023/09/11 15:13:50;;;;;;;;;;;;;;;;;;6236739;23;19911;-89
2023/09/11 15:16:16;;;;;;;;;;;;;;;;;;6214274;23;19912;-86
2023/09/11 15:18:42;;;;;;;;;;;;;;;;;;6214312;23;19931;-86
2023/09/11 15:21:08;;;;;;;;;;;;;;;;;;6214433;23;19986;-86
2023/09/11 15:23:34;;;;;;;;;;;;;;;;;;6211935;23;19914;-86
2023/09/11 15:26:00;;;;;;;;;;;;;;;;;;6214027;23;19915;-86
2023/09/11 15:28:26;;;;;;;;;;;;;;;;;;6215136;23;20285;-86
2023/09/11 15:30:52;;;;;;;;;;;;;;;;;;6213918;23;20276;-87
2023/09/11 15:33:18;;;;;;;;;;;;;;;;;;6214893;23;19907;-88
2023/09/11 15:35:44;;;;;;;;;;;;;;;;;;6214154;23;19914;-88
2023/09/11 15:38:13;;;;;;;;;;;;;;;;;;6214370;23;20373;-87
2023/09/11 15:40:39;;;;;;;;;;;;;;;;;;6215031;23;19915;-88
2023/09/11 15:43:05;;;;;;;;;;;;;;;;;;6211088;23;19958;-88
2023/09/11 15:45:31;;;;;;;;;;;;;;;;;;6206898;23;20383;-87
2023/09/11 15:47:57;;;;;;;;;;;;;;;;;;6238341;23;19915;-87
2023/09/11 15:50:23;;;;;;;;;;;;;;;;;;6208269;23;19908;-87
2023/09/11 15:52:50;;;;;;;;;;;;;;;;;;6209446;22;19923;-87
2023/09/11 15:55:16;;;;;;;;;;;;;;;;;;6208259;23;19916;-87
2023/09/11 15:57:41;;;;;;;;;;;;;;;;;;6206137;23;19908;-87
2023/09/11 16:00:07;;;;;;;;;;;;;;;;;;6211338;23;19904;-87
2023/09/11 16:02:33;;;;;;;;;;;;;;;;;;6212883;23;19919;-87
2023/09/11 16:04:59;;;;;;;;;;;;;;;;;;6213037;23;19957;-88
2023/09/11 16:07:28;;;;;;;;;;;;;;;;;;6240666;23;19911;-87
2023/09/11 16:09:56;;;;;;;;;;;;;;;;;;6239331;23;19914;-88
2023/09/11 16:12:22;;;;;;;;;;;;;;;;;;6214112;23;19903;-87
2023/09/11 16:14:47;;;;;;;;;;;;;;;;;;6210920;23;19908;-87
2023/09/11 16:17:17;;;;;;;;;;;;;;;;;;6212790;23;19907;-87
2023/09/11 16:19:43;;;;;;;;;;;;;;;;;;6214328;23;20321;-86
2023/09/11 16:22:10;;;;;;;;;;;;;;;;;;6213901;23;19915;-88
2023/09/11 16:24:35;;;;;;;;;;;;;;;;;;6213635;23;19911;-88
2023/09/11 16:27:01;;;;;;;;;;;;;;;;;;6211476;23;19918;-88
2023/09/11 16:29:28;;;;;;;;;;;;;;;;;;6211819;23;19950;-88
2023/09/11 16:31:54;;;;;;;;;;;;;;;;;;6208138;23;20312;-88
2023/09/11 16:34:19;;;;;;;;;;;;;;;;;;6234127;23;20155;-88
2023/09/11 16:36:46;;;;;;;;;;;;;;;;;;6208677;23;20326;-91
2023/09/11 16:39:12;;;;;;;;;;;;;;;;;;6239790;23;19970;-91
2023/09/11 16:41:50;;;;;;;;;;;;;;;;;;6223061;23;19919;-92
2023/09/11 16:44:16;;;;;;;;;;;;;;;;;;6211247;23;19911;-90
2023/09/11 16:46:42;;;;;;;;;;;;;;;;;;6205916;23;19907;-87
2023/09/11 16:49:08;;;;;;;;;;;;;;;;;;6204687;23;20387;-88
2023/09/11 16:51:34;;;;;;;;;;;;;;;;;;6204373;23;19986;-88
2023/09/11 16:54:00;;;;;;;;;;;;;;;;;;6207588;22;19920;-86
2023/09/11 16:56:26;;;;;;;;;;;;;;;;;;6204957;23;20484;-86
2023/09/11 16:58:51;;;;;;;;;;;;;;;;;;6205378;23;19987;-86
2023/09/11 17:01:17;;;;;;;;;;;;;;;;;;6203791;23;20289;-87